ROMMA est une association bénévole à but non lucratif. Votre soutien est indispensable : ADHERER à ROMMA ou FAIRE un DON

Pinsot - (38, Isère)

Vallée du Haut Bréda (750 m)   Longitude: 06° 06' E   Latitude: 45° 21' N Station partenaire n°101
 

Détail journalier du     <<     >>

Température Precipitation Humidité Pression Vent Dir Rafale Dir. rafale Ensol.
Heure (°C) (mm) (%) (hPa) (km/h) (km/h) (min)
01:00 -5.00901022011SSO0
02:00 -5.6089102208SSO0
03:00 -5.208710222SSO10SSO0
04:00 -5.10901023010S0
05:00 -4.6090102308SSO0
06:00 -4.3089102308SSO0
07:00 -5.2092102303SSO0
08:00 -5.7093102302SSO0
09:00 -5.1090102406S5
10:00 -4.1086102405S0
11:00 -3.40841024000
12:00 -2.8080102403ENE13
13:00 -1.206510243ENE18NNE60
14:00 -1.30.47410243NE11ENE60
15:00 -0.70.26810242E8N42
16:00 -0.907510251N11N9
17:00 -1.4079102503S17
18:00 -2.80861026000
19:00 -3.8088102605S0
20:00 -4.4087102706SSO0
21:00 -4.808710281S10S0
22:00 -5.408810271SSO8S0
23:00 -5.508910281SSO10SSO0
minuit -5.8090102805SSO0

Graphique du 11-01-2019

 

Serveur OMMA